ASL99P LDDU-LYBE
Flight info
| Callsign | ASL99P |
|---|---|
| Flight time | 0h 39m |
| Altitude | 35000 |
| Route | MOKUN1W/11 MOKUN DCT ELGEB |
| Aircraft | E195/M-SDE3GILORVW/S |
Departure
| Time | 2025-10-27 10:47 |
|---|---|
| Airport | Dubrovnik Ruđer Bošković Airport (LDDU) |
Arrival
| Time | 2025-10-27 11:26 |
|---|---|
| Airport | Belgrade Nikola Tesla Airport (LYBE) |
| Time | Latitude | Longitude | Altitude | Speed | Heading |
|---|---|---|---|---|---|
| 2025-10-27 10:11 | 42.56127 | 18.26204 | 520 ft | 0 kts | 210° |
| 2025-10-27 10:40 | 42.56162 | 18.26259 | 522 ft | 3 kts | 266° |
| 2025-10-27 10:41 | 42.56155 | 18.26308 | 522 ft | 2 kts | 299° |
| 2025-10-27 10:41 | 42.56153 | 18.26312 | 522 ft | 1 kts | 300° |
| 2025-10-27 10:43 | 42.56158 | 18.26302 | 522 ft | 4 kts | 298° |
| 2025-10-27 10:43 | 42.56224 | 18.26131 | 522 ft | 16 kts | 300° |
| 2025-10-27 10:44 | 42.56363 | 18.25776 | 522 ft | 26 kts | 294° |
| 2025-10-27 10:44 | 42.56460 | 18.25547 | 524 ft | 28 kts | 301° |
| 2025-10-27 10:45 | 42.56761 | 18.24779 | 525 ft | 31 kts | 299° |
| 2025-10-27 10:45 | 42.56921 | 18.24723 | 525 ft | 28 kts | 51° |
| 2025-10-27 10:46 | 42.56348 | 18.26289 | 525 ft | 137 kts | 118° |
| 2025-10-27 10:46 | 42.55356 | 18.28786 | 1375 ft | 153 kts | 122° |
| 2025-10-27 10:47 | 42.53412 | 18.29938 | 1937 ft | 168 kts | 185° |
| 2025-10-27 10:47 | 42.50940 | 18.29966 | 2901 ft | 188 kts | 180° |
| 2025-10-27 10:48 | 42.48128 | 18.30035 | 3229 ft | 229 kts | 185° |
| 2025-10-27 10:48 | 42.44762 | 18.29609 | 4921 ft | 255 kts | 193° |
| 2025-10-27 10:48 | 42.43592 | 18.29257 | 5186 ft | 263 kts | 197° |
| 2025-10-27 10:49 | 42.39415 | 18.27932 | 6855 ft | 266 kts | 197° |
| 2025-10-27 10:50 | 42.34510 | 18.26439 | 8539 ft | 277 kts | 187° |
| 2025-10-27 10:50 | 42.31007 | 18.28747 | 9659 ft | 307 kts | 129° |
| 2025-10-27 10:51 | 42.30207 | 18.34507 | 10297 ft | 339 kts | 75° |
| 2025-10-27 10:51 | 42.33026 | 18.39445 | 11207 ft | 337 kts | 22° |
| 2025-10-27 10:51 | 42.35234 | 18.40347 | 11763 ft | 329 kts | 1° |
| 2025-10-27 10:52 | 42.42037 | 18.42076 | 13381 ft | 350 kts | 14° |
| 2025-10-27 10:52 | 42.44244 | 18.43315 | 13896 ft | 340 kts | 18° |
| 2025-10-27 10:53 | 42.50576 | 18.47852 | 15630 ft | 347 kts | 26° |
| 2025-10-27 10:54 | 42.54696 | 18.51206 | 16858 ft | 344 kts | 23° |
| 2025-10-27 10:54 | 42.58701 | 18.54792 | 18106 ft | 344 kts | 26° |
| 2025-10-27 10:54 | 42.60673 | 18.56623 | 18635 ft | 343 kts | 26° |
| 2025-10-27 10:55 | 42.66507 | 18.62070 | 20339 ft | 335 kts | 25° |
| 2025-10-27 10:56 | 42.70294 | 18.65612 | 21546 ft | 324 kts | 24° |
| 2025-10-27 10:56 | 42.73918 | 18.68999 | 22582 ft | 314 kts | 23° |
| 2025-10-27 10:56 | 42.75737 | 18.70685 | 22528 ft | 328 kts | 24° |
| 2025-10-27 10:57 | 42.81675 | 18.76268 | 22696 ft | 363 kts | 25° |
| 2025-10-27 10:58 | 42.85965 | 18.80302 | 22868 ft | 386 kts | 25° |
| 2025-10-27 10:58 | 42.90515 | 18.84592 | 22998 ft | 409 kts | 26° |
| 2025-10-27 10:59 | 42.95294 | 18.89104 | 22906 ft | 420 kts | 26° |
| 2025-10-27 10:59 | 43.00094 | 18.93640 | 22838 ft | 419 kts | 26° |
| 2025-10-27 11:00 | 43.05033 | 18.98312 | 22866 ft | 444 kts | 26° |
| 2025-10-27 11:00 | 43.10229 | 19.03242 | 22859 ft | 462 kts | 27° |
| 2025-10-27 11:00 | 43.12865 | 19.05756 | 22860 ft | 461 kts | 26° |
| 2025-10-27 11:01 | 43.20745 | 19.13261 | 22819 ft | 459 kts | 27° |
| 2025-10-27 11:02 | 43.25999 | 19.18273 | 22854 ft | 459 kts | 26° |
| 2025-10-27 11:02 | 43.31237 | 19.23289 | 22818 ft | 458 kts | 26° |
| 2025-10-27 11:03 | 43.36467 | 19.28309 | 22847 ft | 459 kts | 26° |
| 2025-10-27 11:03 | 43.41669 | 19.33309 | 22871 ft | 459 kts | 26° |
| 2025-10-27 11:04 | 43.46904 | 19.38353 | 22854 ft | 459 kts | 26° |
| 2025-10-27 11:04 | 43.49514 | 19.40874 | 22847 ft | 458 kts | 27° |
| 2025-10-27 11:04 | 43.52130 | 19.43394 | 22858 ft | 459 kts | 26° |
| 2025-10-27 11:05 | 43.62578 | 19.53515 | 22884 ft | 460 kts | 27° |
| 2025-10-27 11:06 | 43.67812 | 19.58603 | 22872 ft | 460 kts | 27° |
| 2025-10-27 11:06 | 43.73048 | 19.63703 | 22892 ft | 461 kts | 27° |
| 2025-10-27 11:07 | 43.78282 | 19.68810 | 22871 ft | 460 kts | 27° |
| 2025-10-27 11:07 | 43.83511 | 19.73922 | 22886 ft | 460 kts | 27° |
| 2025-10-27 11:07 | 43.86124 | 19.76482 | 22868 ft | 459 kts | 27° |
| 2025-10-27 11:08 | 43.91314 | 19.81578 | 22898 ft | 460 kts | 27° |
| 2025-10-27 11:08 | 43.96437 | 19.86621 | 22404 ft | 440 kts | 26° |
| 2025-10-27 11:09 | 44.03644 | 19.93720 | 20778 ft | 407 kts | 27° |
| 2025-10-27 11:10 | 44.08219 | 19.98240 | 18542 ft | 398 kts | 28° |
| 2025-10-27 11:10 | 44.12670 | 20.02652 | 16395 ft | 385 kts | 29° |
| 2025-10-27 11:11 | 44.16720 | 20.07374 | 14544 ft | 368 kts | 28° |
| 2025-10-27 11:11 | 44.20994 | 20.11083 | 12834 ft | 355 kts | 25° |
| 2025-10-27 11:12 | 44.25019 | 20.14934 | 11144 ft | 345 kts | 30° |
| 2025-10-27 11:12 | 44.26958 | 20.16862 | 10366 ft | 339 kts | 31° |
| 2025-10-27 11:12 | 44.30671 | 20.20577 | 8946 ft | 317 kts | 31° |
| 2025-10-27 11:13 | 44.35816 | 20.25720 | 7048 ft | 294 kts | 32° |
| 2025-10-27 11:14 | 44.39118 | 20.29026 | 6384 ft | 290 kts | 32° |
| 2025-10-27 11:14 | 44.42224 | 20.32147 | 5747 ft | 285 kts | 33° |
| 2025-10-27 11:15 | 44.45278 | 20.35218 | 5752 ft | 245 kts | 33° |
| 2025-10-27 11:15 | 44.47848 | 20.37795 | 5230 ft | 222 kts | 33° |
| 2025-10-27 11:15 | 44.49104 | 20.39045 | 4816 ft | 221 kts | 33° |
| 2025-10-27 11:16 | 44.51574 | 20.41541 | 4082 ft | 217 kts | 34° |
| 2025-10-27 11:17 | 44.54082 | 20.44068 | 4230 ft | 217 kts | 34° |
| 2025-10-27 11:17 | 44.57397 | 20.47425 | 4045 ft | 194 kts | 34° |
| 2025-10-27 11:18 | 44.59727 | 20.49779 | 4146 ft | 210 kts | 35° |
| 2025-10-27 11:18 | 44.62098 | 20.52179 | 4077 ft | 209 kts | 35° |
| 2025-10-27 11:19 | 44.64461 | 20.54571 | 4072 ft | 209 kts | 34° |
| 2025-10-27 11:19 | 44.65628 | 20.55750 | 4082 ft | 210 kts | 35° |
| 2025-10-27 11:20 | 44.68125 | 20.57800 | 4046 ft | 207 kts | 4° |
| 2025-10-27 11:20 | 44.70378 | 20.56174 | 4013 ft | 176 kts | 310° |
| 2025-10-27 11:21 | 44.71856 | 20.53349 | 4043 ft | 180 kts | 300° |
| 2025-10-27 11:21 | 44.73888 | 20.48880 | 3721 ft | 185 kts | 299° |
| 2025-10-27 11:22 | 44.75173 | 20.45877 | 3152 ft | 177 kts | 300° |
| 2025-10-27 11:22 | 44.76489 | 20.42983 | 2618 ft | 162 kts | 302° |
| 2025-10-27 11:23 | 44.77108 | 20.41622 | 2624 ft | 167 kts | 301° |
| 2025-10-27 11:23 | 44.77711 | 20.40286 | 2341 ft | 159 kts | 301° |
| 2025-10-27 11:24 | 44.79361 | 20.36494 | 1440 ft | 157 kts | 302° |
| 2025-10-27 11:24 | 44.80528 | 20.33884 | 738 ft | 160 kts | 301° |
| 2025-10-27 11:25 | 44.81674 | 20.31286 | 314 ft | 139 kts | 302° |
| 2025-10-27 11:25 | 44.82172 | 20.29848 | 313 ft | 20 kts | 270° |
| 2025-10-27 11:26 | 44.82127 | 20.29555 | 318 ft | 11 kts | 212° |
| 2025-10-27 11:26 | 44.82058 | 20.29492 | 319 ft | 13 kts | 213° |
| 2025-10-27 11:27 | 44.81953 | 20.29363 | 320 ft | 7 kts | 293° |
| 2025-10-27 11:27 | 44.81972 | 20.29317 | 320 ft | 0 kts | 302° |